createdAt,value
2022-07-28T00:00:19.520Z,29.98
2022-07-28T00:02:50.457Z,29.77
2022-07-28T00:05:21.976Z,30.09
2022-07-28T00:07:53.924Z,30.06
2022-07-28T00:10:25.801Z,30.19
2022-07-28T00:13:00.008Z,30.22
2022-07-28T00:15:31.891Z,30.28
2022-07-28T00:18:03.515Z,30.32
2022-07-28T00:20:36.163Z,30.34
2022-07-28T00:23:08.643Z,30.39
2022-07-28T00:25:40.128Z,30.33
2022-07-28T00:28:13.694Z,30.36
2022-07-28T00:30:45.203Z,30.34
2022-07-28T00:33:16.831Z,30.33
2022-07-28T00:35:49.406Z,30.33
2022-07-28T00:38:21.133Z,30.35
2022-07-28T00:41:14.720Z,30.38
2022-07-28T00:43:50.739Z,30.33
2022-07-28T00:46:24.794Z,30.36
2022-07-28T00:48:58.538Z,30.42
2022-07-28T00:51:37.731Z,30.52
2022-07-28T00:54:10.403Z,30.27
2022-07-28T00:56:42.572Z,30.62
2022-07-28T00:59:14.110Z,30.72
2022-07-28T01:01:45.887Z,30.79
2022-07-28T01:04:21.135Z,30.85
2022-07-28T01:06:58.747Z,30.56
2022-07-28T01:09:52.554Z,30.51
2022-07-28T01:12:24.235Z,31.00
2022-07-28T01:15:32.913Z,30.87
2022-07-28T01:18:34.940Z,30.97
2022-07-28T01:21:22.775Z,31.09
2022-07-28T01:24:10.528Z,31.16
2022-07-28T01:27:02.050Z,31.20
2022-07-28T01:30:06.327Z,31.16
2022-07-28T01:32:47.472Z,30.95
2022-07-28T01:35:31.602Z,31.21
2022-07-28T01:38:07.753Z,31.09
2022-07-28T01:40:42.891Z,31.29
2022-07-28T01:43:24.435Z,31.15
2022-07-28T01:46:01.716Z,30.94
2022-07-28T01:48:35.627Z,31.29
2022-07-28T01:51:11.437Z,31.60
2022-07-28T01:53:53.956Z,31.28
2022-07-28T01:56:30.653Z,31.63
2022-07-28T01:59:09.152Z,31.60
2022-07-28T02:01:45.604Z,31.33
2022-07-28T02:04:23.436Z,31.18
2022-07-28T02:06:57.986Z,30.64
2022-07-28T02:09:32.323Z,30.67
2022-07-28T02:12:15.754Z,30.66
2022-07-28T02:14:53.518Z,30.57
2022-07-28T02:17:33.513Z,30.42
2022-07-28T02:20:20.384Z,30.32
2022-07-28T02:22:57.482Z,30.27
2022-07-28T02:28:24.303Z,30.18
2022-07-28T02:31:16.903Z,30.12
2022-07-28T02:33:59.910Z,30.13
2022-07-28T02:40:00.614Z,29.70
2022-07-28T02:42:37.382Z,29.73
2022-07-28T02:45:16.411Z,30.07
2022-07-28T02:48:01.669Z,29.62
2022-07-28T02:50:38.336Z,30.00
2022-07-28T02:53:15.255Z,30.02
2022-07-28T02:55:53.925Z,29.96
2022-07-28T02:58:31.403Z,29.75
2022-07-28T03:03:56.805Z,29.68
2022-07-28T03:06:33.255Z,29.98
2022-07-28T03:09:12.659Z,30.02
2022-07-28T03:14:49.713Z,30.07
2022-07-28T03:17:35.020Z,30.12
2022-07-28T03:20:07.508Z,30.15
2022-07-28T03:22:46.071Z,30.16
2022-07-28T03:26:09.385Z,30.11
2022-07-28T03:28:46.867Z,30.14
2022-07-28T03:31:26.541Z,30.25
2022-07-28T03:34:09.069Z,30.28
2022-07-28T03:36:49.282Z,30.42
2022-07-28T03:39:38.749Z,30.38
2022-07-28T03:42:14.391Z,30.63
2022-07-28T03:44:52.355Z,30.72
2022-07-28T03:47:27.519Z,30.55
2022-07-28T03:49:59.188Z,30.63
2022-07-28T03:52:36.045Z,30.94
2022-07-28T03:58:05.856Z,31.03
2022-07-28T04:00:38.785Z,31.04
2022-07-28T04:03:36.894Z,31.06
2022-07-28T04:06:19.121Z,31.04
2022-07-28T04:08:54.517Z,31.13
2022-07-28T04:11:32.800Z,31.13
2022-07-28T04:14:16.855Z,31.16
2022-07-28T04:16:54.363Z,31.15
2022-07-28T04:19:33.299Z,31.19
2022-07-28T04:22:09.271Z,31.20
2022-07-28T04:24:41.668Z,31.21
2022-07-28T04:27:21.477Z,31.22
2022-07-28T04:30:04.799Z,31.20
2022-07-28T04:32:36.926Z,31.19
2022-07-28T04:35:17.663Z,31.30
2022-07-28T04:37:59.864Z,31.00
2022-07-28T04:40:32.925Z,31.30
2022-07-28T04:43:06.733Z,31.30
2022-07-28T04:45:53.483Z,31.32
2022-07-28T04:48:29.728Z,31.34
2022-07-28T04:51:19.900Z,31.36
2022-07-28T04:56:45.089Z,31.39
2022-07-28T04:59:21.094Z,31.49
2022-07-28T05:02:11.698Z,31.54
2022-07-28T05:04:48.442Z,31.57
2022-07-28T05:07:20.282Z,31.59
2022-07-28T05:09:55.012Z,31.42
2022-07-28T05:12:27.469Z,31.65
2022-07-28T05:14:59.631Z,31.70
2022-07-28T05:17:31.344Z,31.69
2022-07-28T05:20:03.601Z,31.81
2022-07-28T05:22:49.670Z,31.22
2022-07-28T05:25:24.217Z,31.74
2022-07-28T05:27:56.382Z,31.72
2022-07-28T05:30:28.318Z,31.65
2022-07-28T05:33:02.860Z,31.54
2022-07-28T05:35:34.902Z,31.50
2022-07-28T05:38:10.514Z,31.39
2022-07-28T05:40:42.494Z,31.41
2022-07-28T05:43:15.081Z,31.38
2022-07-28T05:45:46.442Z,31.39
2022-07-28T05:48:24.736Z,31.36
2022-07-28T05:50:56.345Z,31.31
2022-07-28T05:53:27.850Z,31.34
2022-07-28T05:56:01.116Z,31.35
2022-07-28T05:58:33.111Z,31.35
2022-07-28T06:01:04.406Z,31.07
2022-07-28T06:03:41.830Z,31.36
2022-07-28T06:06:15.885Z,31.38
2022-07-28T06:08:49.286Z,31.31
2022-07-28T06:11:22.821Z,31.36
2022-07-28T06:13:55.172Z,31.05
2022-07-28T06:16:26.693Z,31.34
2022-07-28T06:18:58.319Z,31.32
2022-07-28T06:21:29.790Z,31.22
2022-07-28T06:24:01.367Z,31.22
2022-07-28T06:26:32.832Z,31.24
2022-07-28T06:29:04.210Z,31.21
2022-07-28T06:31:36.489Z,31.19
2022-07-28T06:34:08.087Z,31.20
2022-07-28T06:36:39.908Z,31.09
2022-07-28T06:39:11.282Z,31.12
2022-07-28T06:41:46.120Z,31.06
2022-07-28T06:44:17.802Z,30.88
2022-07-28T06:46:48.964Z,30.81
2022-07-28T06:49:20.506Z,31.07
2022-07-28T06:51:52.022Z,31.08
2022-07-28T06:54:23.487Z,31.03
2022-07-28T06:56:55.436Z,31.06
2022-07-28T06:59:26.926Z,31.03
2022-07-28T07:02:03.367Z,30.99
2022-07-28T07:04:36.116Z,30.92
2022-07-28T07:07:14.939Z,31.00
2022-07-28T07:09:49.090Z,31.01
2022-07-28T07:12:20.796Z,31.07
2022-07-28T07:14:52.487Z,31.03
2022-07-28T07:17:24.134Z,31.11
2022-07-28T07:19:55.499Z,30.88
2022-07-28T07:22:27.147Z,31.14
2022-07-28T07:24:58.795Z,31.15
2022-07-28T07:27:30.040Z,30.90
2022-07-28T07:30:01.232Z,31.13
2022-07-28T07:32:33.003Z,31.12
2022-07-28T07:35:04.421Z,31.16
2022-07-28T07:37:35.992Z,31.11
2022-07-28T07:40:08.253Z,31.18
2022-07-28T07:42:39.971Z,31.19
2022-07-28T07:45:11.785Z,31.11
2022-07-28T07:47:43.478Z,31.10
2022-07-28T07:50:14.852Z,31.11
2022-07-28T07:52:47.630Z,31.11
2022-07-28T07:55:19.651Z,31.07
2022-07-28T07:57:51.233Z,31.06
2022-07-28T08:00:28.327Z,30.97
2022-07-28T08:03:02.558Z,31.33
2022-07-28T08:05:34.750Z,31.46
2022-07-28T08:08:08.833Z,31.53
2022-07-28T08:10:41.597Z,31.56
2022-07-28T08:13:13.017Z,31.59
2022-07-28T08:15:44.735Z,31.50
2022-07-28T08:18:19.388Z,31.60
2022-07-28T08:20:51.959Z,31.61
2022-07-28T08:23:26.248Z,31.60
2022-07-28T08:25:57.939Z,31.61
2022-07-28T08:28:29.409Z,31.60
2022-07-28T08:31:00.877Z,31.61
2022-07-28T08:33:32.951Z,31.29
2022-07-28T08:36:04.730Z,31.63
2022-07-28T08:38:36.302Z,31.56
2022-07-28T08:41:11.115Z,31.58
2022-07-28T08:43:45.132Z,31.59
2022-07-28T08:46:17.510Z,31.58
2022-07-28T08:48:52.581Z,31.59
2022-07-28T08:51:25.205Z,31.58
2022-07-28T08:53:57.367Z,31.58
2022-07-28T08:56:30.178Z,31.52
2022-07-28T08:59:02.489Z,31.55
2022-07-28T09:01:39.006Z,31.43
2022-07-28T09:04:11.375Z,31.50
2022-07-28T09:06:44.532Z,31.25
2022-07-28T09:09:16.369Z,31.51
2022-07-28T09:11:47.715Z,31.47
2022-07-28T09:14:19.165Z,31.39
2022-07-28T09:16:50.610Z,31.46
2022-07-28T09:19:22.007Z,31.47
2022-07-28T09:21:53.926Z,31.57
2022-07-28T09:24:46.121Z,31.30
2022-07-28T09:27:18.302Z,31.79
2022-07-28T09:29:59.971Z,31.90
2022-07-28T09:32:32.858Z,31.86
2022-07-28T09:35:04.327Z,32.01
2022-07-28T09:37:36.105Z,32.05
2022-07-28T09:40:15.147Z,31.84
2022-07-28T09:42:56.951Z,32.33
2022-07-28T09:45:31.160Z,32.40
2022-07-28T09:48:16.438Z,32.44
2022-07-28T09:50:48.125Z,32.56
2022-07-28T09:53:30.031Z,32.50
2022-07-28T09:56:03.687Z,32.15
2022-07-28T09:58:35.398Z,32.47
2022-07-28T10:01:22.405Z,32.43
2022-07-28T10:03:57.541Z,32.42
2022-07-28T10:06:35.256Z,32.11
2022-07-28T10:09:14.150Z,32.41
2022-07-28T10:11:45.856Z,32.42
2022-07-28T10:14:20.028Z,32.42
2022-07-28T10:16:55.016Z,32.45
2022-07-28T10:19:26.764Z,32.47
2022-07-28T10:22:00.567Z,32.43
2022-07-28T10:24:36.822Z,32.49
2022-07-28T10:27:08.777Z,32.52
2022-07-28T10:29:40.276Z,31.98
2022-07-28T10:32:15.273Z,32.49
2022-07-28T10:34:52.646Z,32.53
2022-07-28T10:37:29.698Z,32.23
2022-07-28T10:40:10.288Z,32.54
2022-07-28T10:42:43.306Z,32.52
2022-07-28T10:45:16.926Z,32.49
2022-07-28T10:47:49.184Z,32.57
2022-07-28T10:50:22.116Z,32.47
2022-07-28T10:52:58.993Z,32.55
2022-07-28T10:55:43.324Z,32.29
2022-07-28T10:59:07.762Z,32.32
2022-07-28T11:01:50.643Z,32.23
2022-07-28T11:04:43.849Z,32.46
2022-07-28T11:07:18.445Z,32.58
2022-07-28T11:09:50.806Z,32.33
2022-07-28T11:12:54.771Z,32.42
2022-07-28T11:15:39.355Z,32.44
2022-07-28T11:18:12.461Z,32.21
2022-07-28T11:21:00.622Z,32.45
2022-07-28T11:23:46.793Z,32.44
2022-07-28T11:26:39.728Z,32.35
2022-07-28T11:29:14.128Z,32.42
2022-07-28T11:31:48.456Z,32.43
2022-07-28T11:34:24.924Z,32.11
2022-07-28T11:37:15.178Z,32.29
2022-07-28T11:39:46.968Z,32.37
2022-07-28T11:42:32.278Z,32.03
2022-07-28T11:45:35.929Z,32.22
2022-07-28T11:48:25.249Z,31.65
2022-07-28T11:51:22.764Z,32.15
2022-07-28T11:53:55.740Z,31.92
2022-07-28T11:56:38.719Z,32.34
2022-07-28T11:59:12.957Z,32.44
2022-07-28T12:01:54.809Z,32.21
2022-07-28T12:04:29.461Z,32.51
2022-07-28T12:07:01.970Z,32.58
2022-07-28T12:09:42.014Z,32.65
2022-07-28T12:12:14.159Z,32.68
2022-07-28T12:14:47.831Z,32.66
2022-07-28T12:17:19.444Z,32.71
2022-07-28T12:19:52.254Z,32.77
2022-07-28T12:22:23.803Z,32.78
2022-07-28T12:25:00.018Z,32.75
2022-07-28T12:27:32.197Z,32.80
2022-07-28T12:30:05.164Z,32.77
2022-07-28T12:32:37.568Z,32.81
2022-07-28T12:35:09.638Z,32.82
2022-07-28T12:37:41.647Z,32.83
2022-07-28T12:40:14.983Z,32.78
2022-07-28T12:42:52.145Z,32.62
2022-07-28T12:45:25.596Z,32.79
2022-07-28T12:47:56.399Z,32.46
2022-07-28T12:50:27.714Z,32.66
2022-07-28T12:53:26.298Z,32.63
2022-07-28T12:56:04.328Z,32.74
2022-07-28T12:58:37.639Z,32.77
2022-07-28T13:01:10.838Z,32.61
2022-07-28T13:03:53.804Z,32.51
2022-07-28T13:06:26.052Z,32.46
2022-07-28T13:08:56.992Z,32.07
2022-07-28T13:11:45.815Z,31.97
2022-07-28T13:14:18.918Z,32.14
2022-07-28T13:17:00.352Z,32.13
2022-07-28T13:19:32.018Z,31.87
2022-07-28T13:22:08.600Z,32.11
2022-07-28T13:24:40.601Z,32.09
2022-07-28T13:27:12.645Z,32.05
2022-07-28T13:29:44.195Z,32.03
2022-07-28T13:32:15.894Z,31.98
2022-07-28T13:34:47.519Z,31.96
2022-07-28T13:37:19.994Z,31.96
2022-07-28T13:39:54.743Z,31.97
2022-07-28T13:42:26.425Z,31.95
2022-07-28T13:44:58.004Z,31.88
2022-07-28T13:47:35.612Z,31.81
2022-07-28T13:50:11.333Z,31.73
2022-07-28T13:52:46.634Z,31.64
2022-07-28T13:55:22.724Z,31.51
2022-07-28T13:57:54.901Z,31.40
2022-07-28T14:00:28.361Z,31.35
2022-07-28T14:03:03.904Z,31.27
2022-07-28T14:05:40.642Z,31.16
2022-07-28T14:08:20.206Z,31.10
2022-07-28T14:10:58.187Z,30.70
2022-07-28T14:13:31.519Z,30.94
2022-07-28T14:16:13.946Z,30.90
2022-07-28T14:18:45.647Z,30.87
2022-07-28T14:21:17.433Z,30.79
2022-07-28T14:23:49.210Z,30.72
2022-07-28T14:26:35.438Z,30.68
2022-07-28T14:29:11.545Z,30.62
2022-07-28T14:31:43.440Z,30.59
2022-07-28T14:34:15.395Z,30.37
2022-07-28T14:36:47.341Z,30.49
2022-07-28T14:39:22.542Z,30.44
2022-07-28T14:41:54.876Z,30.37
2022-07-28T14:44:26.471Z,30.32
2022-07-28T14:46:58.711Z,30.30
2022-07-28T14:49:30.533Z,30.23
2022-07-28T14:52:02.021Z,30.24
2022-07-28T14:54:35.803Z,30.16
2022-07-28T14:57:07.654Z,30.17
2022-07-28T14:59:39.106Z,30.08
2022-07-28T15:02:11.088Z,30.05
2022-07-28T15:04:42.995Z,30.12
2022-07-28T15:07:15.139Z,30.09
2022-07-28T15:09:50.469Z,30.01
2022-07-28T15:12:22.161Z,30.03
2022-07-28T15:14:53.831Z,30.02
2022-07-28T15:17:25.359Z,29.99
2022-07-28T15:19:58.329Z,29.99
2022-07-28T15:22:29.898Z,29.99
2022-07-28T15:25:01.527Z,29.96
2022-07-28T15:27:33.950Z,29.90
2022-07-28T15:30:06.113Z,29.92
2022-07-28T15:32:54.621Z,29.84
2022-07-28T15:35:28.356Z,29.84
2022-07-28T15:38:19.798Z,29.84
2022-07-28T15:40:52.187Z,29.81
2022-07-28T15:43:24.431Z,29.82
2022-07-28T15:46:00.659Z,29.76
2022-07-28T15:48:33.032Z,29.80
2022-07-28T15:51:04.850Z,29.80
2022-07-28T15:53:38.147Z,29.46
2022-07-28T15:56:10.460Z,29.92
2022-07-28T15:58:42.336Z,29.97
2022-07-28T16:01:13.887Z,29.94
2022-07-28T16:03:45.573Z,29.89
2022-07-28T16:06:17.904Z,29.79
2022-07-28T16:08:49.466Z,29.80
2022-07-28T16:11:20.840Z,29.51
2022-07-28T16:13:52.182Z,29.86
2022-07-28T16:16:23.762Z,29.87
2022-07-28T16:18:59.018Z,29.84
2022-07-28T16:21:30.987Z,29.81
2022-07-28T16:24:02.295Z,29.75
2022-07-28T16:26:34.188Z,29.80
2022-07-28T16:29:06.438Z,29.75
2022-07-28T16:31:44.837Z,29.72
2022-07-28T16:34:17.113Z,29.76
2022-07-28T16:36:48.360Z,29.43
2022-07-28T16:39:20.468Z,29.57
2022-07-28T16:41:54.341Z,29.60
2022-07-28T16:44:29.225Z,29.58
2022-07-28T16:47:01.254Z,29.55
2022-07-28T16:49:33.325Z,29.46
2022-07-28T16:52:05.384Z,29.42
2022-07-28T16:54:36.475Z,29.03
2022-07-28T16:57:08.731Z,29.41
2022-07-28T16:59:48.665Z,29.38
2022-07-28T17:02:21.262Z,29.43
2022-07-28T17:04:52.343Z,29.08
2022-07-28T17:07:24.817Z,29.45
2022-07-28T17:09:56.419Z,29.45
2022-07-28T17:12:27.647Z,29.13
2022-07-28T17:14:59.044Z,29.41
2022-07-28T17:17:30.564Z,29.37
2022-07-28T17:20:02.739Z,29.30
2022-07-28T17:22:34.424Z,29.40
2022-07-28T17:25:22.538Z,29.36
2022-07-28T17:27:58.111Z,29.35
2022-07-28T17:30:30.366Z,29.34
2022-07-28T17:33:08.399Z,29.29
2022-07-28T17:35:41.616Z,29.27
2022-07-28T17:38:14.189Z,29.27
2022-07-28T17:40:45.672Z,29.26
2022-07-28T17:43:17.642Z,29.25
2022-07-28T17:45:51.240Z,29.18
2022-07-28T17:48:23.607Z,29.21
2022-07-28T17:50:55.036Z,29.17
2022-07-28T17:53:26.713Z,29.17
2022-07-28T17:56:01.165Z,29.11
2022-07-28T17:58:33.468Z,29.13
2022-07-28T18:01:10.573Z,28.63
2022-07-28T18:03:56.751Z,28.40
2022-07-28T18:06:37.449Z,29.06
2022-07-28T18:09:13.541Z,28.59
2022-07-28T18:11:56.808Z,28.90
2022-07-28T18:14:30.596Z,29.03
2022-07-28T18:17:02.349Z,29.02
2022-07-28T18:19:34.040Z,28.99
2022-07-28T18:22:05.441Z,28.94
2022-07-28T18:24:36.867Z,28.93
2022-07-28T18:27:08.500Z,28.90
2022-07-28T18:29:40.295Z,28.91
2022-07-28T18:32:13.610Z,28.92
2022-07-28T18:34:46.845Z,28.79
2022-07-28T18:37:19.003Z,28.80
2022-07-28T18:39:50.956Z,28.82
2022-07-28T18:42:22.441Z,28.78
2022-07-28T18:44:54.056Z,28.75
2022-07-28T18:47:26.682Z,28.77
2022-07-28T18:49:59.042Z,28.78
2022-07-28T18:52:30.574Z,28.79
2022-07-28T18:55:02.754Z,28.78
2022-07-28T18:57:34.254Z,28.74
2022-07-28T19:00:10.806Z,28.41
2022-07-28T19:02:42.423Z,28.68
2022-07-28T19:05:13.962Z,28.72
2022-07-28T19:07:45.418Z,28.71
2022-07-28T19:10:16.902Z,28.45
2022-07-28T19:12:49.571Z,28.72
2022-07-28T19:15:21.163Z,28.64
2022-07-28T19:18:11.357Z,28.73
2022-07-28T19:20:43.928Z,28.64
2022-07-28T19:23:16.073Z,28.68
2022-07-28T19:25:47.607Z,28.61
2022-07-28T19:28:19.220Z,28.61
2022-07-28T19:30:53.322Z,28.62
2022-07-28T19:33:25.725Z,28.63
2022-07-28T19:35:57.423Z,28.60
2022-07-28T19:38:29.949Z,28.50
2022-07-28T19:41:01.316Z,28.15
2022-07-28T19:43:32.700Z,28.49
2022-07-28T19:46:04.729Z,28.51
2022-07-28T19:48:38.791Z,28.21
2022-07-28T19:51:10.762Z,28.50
2022-07-28T19:53:42.619Z,28.53
2022-07-28T19:56:16.452Z,28.55
2022-07-28T19:58:49.044Z,28.55
2022-07-28T20:01:21.450Z,28.46
2022-07-28T20:04:03.112Z,28.43
2022-07-28T20:06:36.524Z,28.46
2022-07-28T20:09:08.026Z,28.47
2022-07-28T20:11:40.496Z,28.44
2022-07-28T20:14:12.119Z,28.38
2022-07-28T20:16:44.344Z,28.39
2022-07-28T20:19:18.197Z,28.43
2022-07-28T20:21:49.859Z,28.37
2022-07-28T20:24:21.546Z,28.36
2022-07-28T20:26:53.369Z,28.37
2022-07-28T20:29:24.838Z,28.36
2022-07-28T20:31:56.144Z,28.36
2022-07-28T20:34:27.669Z,28.37
2022-07-28T20:36:59.021Z,28.29
2022-07-28T20:39:44.323Z,28.31
2022-07-28T20:42:16.878Z,28.34
2022-07-28T20:44:48.567Z,28.26
2022-07-28T20:47:20.695Z,28.25
2022-07-28T20:49:52.270Z,28.28
2022-07-28T20:52:23.747Z,28.31
2022-07-28T20:54:55.691Z,28.27
2022-07-28T20:57:27.251Z,28.31
2022-07-28T20:59:59.164Z,28.20
2022-07-28T21:02:30.788Z,28.23
2022-07-28T21:05:02.539Z,28.26
2022-07-28T21:08:05.342Z,28.29
2022-07-28T21:10:25.701Z,28.24
2022-07-28T21:12:58.123Z,28.02
2022-07-28T21:15:29.648Z,28.28
2022-07-28T21:18:01.438Z,28.02
2022-07-28T21:20:32.829Z,28.25
2022-07-28T21:23:04.404Z,28.21
2022-07-28T21:25:37.172Z,28.19
2022-07-28T21:28:26.465Z,28.20
2022-07-28T21:30:58.107Z,28.07
2022-07-28T21:33:29.747Z,28.14
2022-07-28T21:36:01.308Z,28.13
2022-07-28T21:38:33.733Z,28.13
2022-07-28T21:41:05.410Z,28.11
2022-07-28T21:43:36.926Z,28.03
2022-07-28T21:46:08.820Z,28.06
2022-07-28T21:48:40.403Z,28.06
2022-07-28T21:51:18.414Z,27.70
2022-07-28T21:53:54.247Z,28.04
2022-07-28T21:56:25.872Z,27.88
2022-07-28T21:58:57.185Z,28.03
2022-07-28T22:01:29.704Z,28.01
2022-07-28T22:04:01.663Z,28.00
2022-07-28T22:06:33.099Z,27.99
2022-07-28T22:09:05.195Z,27.93
2022-07-28T22:11:54.689Z,27.97
2022-07-28T22:14:32.939Z,27.99
2022-07-28T22:17:04.370Z,28.01
2022-07-28T22:19:35.828Z,27.80
2022-07-28T22:22:07.806Z,27.97
2022-07-28T22:24:39.454Z,28.02
2022-07-28T22:27:10.796Z,28.03
2022-07-28T22:29:45.391Z,27.95
2022-07-28T22:32:27.018Z,27.94
2022-07-28T22:35:00.873Z,27.90
2022-07-28T22:37:37.356Z,27.97
2022-07-28T22:40:09.841Z,27.94
2022-07-28T22:42:41.868Z,27.98
2022-07-28T22:45:14.447Z,27.81
2022-07-28T22:47:45.989Z,27.98
2022-07-28T22:50:17.907Z,28.01
2022-07-28T22:52:49.733Z,28.03
2022-07-28T22:58:09.117Z,28.06
2022-07-28T23:00:41.058Z,27.98
2022-07-28T23:03:13.458Z,28.03
2022-07-28T23:05:48.077Z,28.13
2022-07-28T23:08:22.055Z,28.15
2022-07-28T23:10:53.510Z,28.29
2022-07-28T23:13:24.971Z,28.54
2022-07-28T23:15:56.413Z,28.67
2022-07-28T23:18:27.949Z,28.80
2022-07-28T23:20:59.336Z,28.88
2022-07-28T23:23:30.793Z,28.97
2022-07-28T23:26:02.792Z,29.03
2022-07-28T23:28:34.406Z,29.22
2022-07-28T23:31:07.053Z,29.24
2022-07-28T23:33:55.469Z,29.48
2022-07-28T23:36:28.683Z,29.55
2022-07-28T23:39:01.433Z,29.22
2022-07-28T23:41:32.986Z,29.68
2022-07-28T23:44:04.425Z,29.73
2022-07-28T23:46:36.109Z,29.78
2022-07-28T23:49:07.948Z,29.84
2022-07-28T23:51:47.652Z,29.90
2022-07-28T23:54:20.274Z,29.94
2022-07-28T23:56:58.029Z,30.06
2022-07-28T23:59:29.557Z,30.09
